Main page
METAR-TAF:

METAR-TAF

Airports :

Kullu / Manali, India

Bhuntar Airport

latitude: 31-52-36N, longitude: 77-09-16E, elevation: 1089 m

Current weather observation

The report was made 14 hours and 36 minutes ago, at 06:00 UTC
Calm wind
Temperature 14°C
Humidity 88%
Pressure 1022 hPa
Visibility: 6000 m
Few clouds at a height of 1000 ft
Broken clouds at a height of 3000 ft
Overcast at a height of 8000 ft

METAR: VIBR 300600Z 00000KT 6000 FEW010 BKN030 OVC080 14/12 Q1022

Time: 02:06 (20:36 UTC)


TAF: missing

Weather observations and forecasts of more than 4000 airports (METAR and TAF reports).

The available stations are represented by yellow and red dots on the map.

Hover mouse over dot to see the name of the station.

Then click to see weather observations and forecasts.

To change the map : click on the green buttons with a black cross to zoom in, on the green button with a dash to zoom out, or on the green arrows for adjacent maps.


METAR-TAF: